createdAt,value
2023-02-11T00:01:10.992Z,55.63
2023-02-11T00:03:39.082Z,60.08
2023-02-11T00:06:09.524Z,64.25
2023-02-11T00:08:36.881Z,55.67
2023-02-11T00:11:05.983Z,66.53
2023-02-11T00:13:33.012Z,55.28
2023-02-11T00:16:00.070Z,61.17
2023-02-11T00:18:28.115Z,65.00
2023-02-11T00:20:55.335Z,68.43
2023-02-11T00:23:22.297Z,62.77
2023-02-11T00:25:49.587Z,64.38
2023-02-11T00:28:18.180Z,64.88
2023-02-11T00:30:45.290Z,63.35
2023-02-11T00:33:12.435Z,61.50
2023-02-11T00:35:39.590Z,65.83
2023-02-11T00:38:06.655Z,62.28
2023-02-11T00:40:33.673Z,54.00
2023-02-11T00:43:00.698Z,54.78
2023-02-11T00:45:30.781Z,68.57
2023-02-11T00:47:58.092Z,59.17
2023-02-11T00:50:25.081Z,59.55
2023-02-11T00:52:52.144Z,61.20
2023-02-11T00:55:19.259Z,66.85
2023-02-11T00:57:46.350Z,124.13
2023-02-11T01:00:14.121Z,71.17
2023-02-11T01:02:42.730Z,56.85
2023-02-11T01:05:09.933Z,56.90
2023-02-11T01:07:37.217Z,60.35
2023-02-11T01:10:04.982Z,58.95
2023-02-11T01:12:35.197Z,74.40
2023-02-11T01:15:04.114Z,63.78
2023-02-11T01:17:31.115Z,71.63
2023-02-11T01:19:59.679Z,57.08
2023-02-11T01:22:26.850Z,74.60
2023-02-11T01:24:53.975Z,51.83
2023-02-11T01:27:21.075Z,52.25
2023-02-11T01:29:48.196Z,55.13
2023-02-11T01:32:15.357Z,61.17
2023-02-11T01:34:42.632Z,69.30
2023-02-11T01:37:11.217Z,67.20
2023-02-11T01:39:38.315Z,64.97
2023-02-11T01:42:05.887Z,64.32
2023-02-11T01:44:34.073Z,55.38
2023-02-11T01:47:01.545Z,50.15
2023-02-11T01:49:30.702Z,48.47
2023-02-11T01:52:00.421Z,47.88
2023-02-11T01:54:51.723Z,46.63
2023-02-11T01:57:27.827Z,48.55
2023-02-11T01:59:58.400Z,53.05
2023-02-11T02:02:27.492Z,41.80
2023-02-11T02:04:57.519Z,52.58
2023-02-11T02:07:29.183Z,50.90
2023-02-11T02:09:58.879Z,49.88
2023-02-11T02:12:26.033Z,49.03
2023-02-11T02:15:09.562Z,50.70
2023-02-11T02:17:43.553Z,43.55
2023-02-11T02:20:32.119Z,42.90
2023-02-11T02:23:17.274Z,45.50
2023-02-11T02:26:04.009Z,44.50
2023-02-11T02:28:44.799Z,41.00
2023-02-11T02:31:26.743Z,36.00
2023-02-11T02:33:56.600Z,37.58
2023-02-11T02:36:24.728Z,44.08
2023-02-11T02:38:54.167Z,43.25
2023-02-11T02:41:23.477Z,44.60
2023-02-11T02:43:51.537Z,37.42
2023-02-11T02:46:19.711Z,36.22
2023-02-11T02:48:49.528Z,38.72
2023-02-11T02:51:26.937Z,34.75
2023-02-11T02:53:58.546Z,35.27
2023-02-11T02:56:30.291Z,34.95
2023-02-11T02:59:04.701Z,38.53
2023-02-11T03:01:36.842Z,37.53
2023-02-11T03:04:07.985Z,38.92
2023-02-11T03:06:39.856Z,43.37
2023-02-11T03:09:11.405Z,50.03
2023-02-11T03:11:39.241Z,41.65
2023-02-11T03:14:08.245Z,41.58
2023-02-11T03:16:39.420Z,40.88
2023-02-11T03:19:10.444Z,38.60
2023-02-11T03:21:39.534Z,39.80
2023-02-11T03:24:08.044Z,40.08
2023-02-11T03:26:38.275Z,35.97
2023-02-11T03:29:10.209Z,36.47
2023-02-11T03:31:40.671Z,40.03
2023-02-11T03:34:10.259Z,40.85
2023-02-11T03:36:46.105Z,45.78
2023-02-11T03:39:14.931Z,41.80
2023-02-11T03:41:42.794Z,37.58
2023-02-11T03:44:10.997Z,35.90
2023-02-11T03:46:39.592Z,35.55
2023-02-11T03:49:09.888Z,35.25
2023-02-11T03:51:37.594Z,36.90
2023-02-11T03:54:09.535Z,37.22
2023-02-11T03:56:38.850Z,34.17
2023-02-11T03:59:05.971Z,36.30
2023-02-11T04:01:33.153Z,39.13
2023-02-11T04:04:00.415Z,35.97
2023-02-11T04:06:27.587Z,35.42
2023-02-11T04:08:54.786Z,33.30
2023-02-11T04:11:24.177Z,38.33
2023-02-11T04:13:51.402Z,34.15
2023-02-11T04:16:18.660Z,35.35
2023-02-11T04:18:45.744Z,36.53
2023-02-11T04:21:12.865Z,34.00
2023-02-11T04:23:39.984Z,32.58
2023-02-11T04:26:07.271Z,35.47
2023-02-11T04:28:36.510Z,33.17
2023-02-11T04:31:03.765Z,34.33
2023-02-11T04:33:30.904Z,35.30
2023-02-11T04:35:57.978Z,33.95
2023-02-11T04:38:25.121Z,37.03
2023-02-11T04:40:52.272Z,33.58
2023-02-11T04:43:19.358Z,38.65
2023-02-11T04:45:48.180Z,32.03
2023-02-11T04:48:15.513Z,38.78
2023-02-11T04:50:42.774Z,37.10
2023-02-11T04:53:09.826Z,36.00
2023-02-11T04:55:36.993Z,34.60
2023-02-11T04:58:04.246Z,36.30
2023-02-11T05:00:31.230Z,43.60
2023-02-11T05:02:59.624Z,39.65
2023-02-11T05:05:26.627Z,35.80
2023-02-11T05:07:53.841Z,43.13
2023-02-11T05:10:20.868Z,49.80
2023-02-11T05:12:48.264Z,42.53
2023-02-11T05:15:15.329Z,44.78
2023-02-11T05:17:42.598Z,41.72
2023-02-11T05:20:11.761Z,47.70
2023-02-11T05:22:38.721Z,47.37
2023-02-11T05:25:06.241Z,48.30
2023-02-11T05:27:33.261Z,50.08
2023-02-11T05:30:00.342Z,62.30
2023-02-11T05:32:27.800Z,53.40
2023-02-11T05:34:54.810Z,56.87
2023-02-11T05:37:23.238Z,52.47
2023-02-11T05:39:50.368Z,74.55
2023-02-11T05:42:17.446Z,60.83
2023-02-11T05:44:44.470Z,54.63
2023-02-11T05:47:11.540Z,55.57
2023-02-11T05:49:38.582Z,58.35
2023-02-11T05:52:05.565Z,48.47
2023-02-11T05:54:34.016Z,54.42
2023-02-11T05:57:01.067Z,55.33
2023-02-11T05:59:28.081Z,64.23
2023-02-11T06:01:55.146Z,57.78
2023-02-11T06:04:22.135Z,60.42
2023-02-11T06:06:49.184Z,61.05
2023-02-11T06:09:16.187Z,75.85
2023-02-11T06:11:44.669Z,59.93
2023-02-11T06:14:11.792Z,67.30
2023-02-11T06:16:38.885Z,71.10
2023-02-11T06:19:06.089Z,63.40
2023-02-11T06:21:43.210Z,58.30
2023-02-11T06:24:11.334Z,68.03
2023-02-11T06:26:38.465Z,60.40
2023-02-11T06:29:07.014Z,70.00
2023-02-11T06:31:34.217Z,65.15
2023-02-11T06:34:01.408Z,59.90
2023-02-11T06:36:28.430Z,52.63
2023-02-11T06:38:55.972Z,63.50
2023-02-11T06:41:23.257Z,60.97
2023-02-11T06:43:50.400Z,65.00
2023-02-11T06:46:19.302Z,53.58
2023-02-11T06:48:46.429Z,50.70
2023-02-11T06:51:14.424Z,53.83
2023-02-11T06:53:43.507Z,61.70
2023-02-11T06:56:12.246Z,57.63
2023-02-11T06:58:39.369Z,51.58
2023-02-11T07:01:07.443Z,53.57
2023-02-11T07:03:36.789Z,49.60
2023-02-11T07:06:04.724Z,56.38
2023-02-11T07:08:32.782Z,55.40
2023-02-11T07:11:00.243Z,54.42
2023-02-11T07:13:27.569Z,66.23
2023-02-11T07:15:54.864Z,70.78
2023-02-11T07:18:22.509Z,64.63
2023-02-11T07:20:50.959Z,71.60
2023-02-11T07:23:18.159Z,70.57
2023-02-11T07:25:45.269Z,69.73
2023-02-11T07:28:14.306Z,61.53
2023-02-11T07:30:41.476Z,60.78
2023-02-11T07:33:08.481Z,53.08
2023-02-11T07:35:35.564Z,55.55
2023-02-11T07:38:04.484Z,53.80
2023-02-11T07:40:31.790Z,51.38
2023-02-11T07:43:00.557Z,53.33
2023-02-11T07:45:28.017Z,59.13
2023-02-11T07:47:55.181Z,60.92
2023-02-11T07:50:22.271Z,59.03
2023-02-11T07:52:49.356Z,63.65
2023-02-11T07:55:17.864Z,65.80
2023-02-11T07:57:45.531Z,64.05
2023-02-11T08:00:13.395Z,58.50
2023-02-11T08:02:40.408Z,80.60
2023-02-11T08:05:07.588Z,83.88
2023-02-11T08:07:34.595Z,86.78
2023-02-11T08:10:01.680Z,62.03
2023-02-11T08:12:30.279Z,65.68
2023-02-11T08:14:57.287Z,67.73
2023-02-11T08:17:24.327Z,62.97
2023-02-11T08:19:51.394Z,69.78
2023-02-11T08:22:18.453Z,69.63
2023-02-11T08:24:45.656Z,66.78
2023-02-11T08:27:12.645Z,66.10
2023-02-11T08:29:41.757Z,69.45
2023-02-11T08:32:09.189Z,85.47
2023-02-11T08:34:38.098Z,79.47
2023-02-11T08:37:05.195Z,72.88
2023-02-11T08:39:32.342Z,75.80
2023-02-11T08:41:59.342Z,67.20
2023-02-11T08:44:26.649Z,68.97
2023-02-11T08:46:55.186Z,73.43
2023-02-11T08:49:22.833Z,66.38
2023-02-11T08:51:50.710Z,73.97
2023-02-11T08:54:18.401Z,72.28
2023-02-11T08:56:45.717Z,81.78
2023-02-11T08:59:13.914Z,72.10
2023-02-11T09:01:41.032Z,75.93
2023-02-11T09:04:10.808Z,74.00
2023-02-11T09:06:37.975Z,81.78
2023-02-11T09:09:05.118Z,78.45
2023-02-11T09:11:33.392Z,79.68
2023-02-11T09:14:01.992Z,84.75
2023-02-11T09:16:30.071Z,83.63
2023-02-11T09:18:57.910Z,86.80
2023-02-11T09:21:26.558Z,84.45
2023-02-11T09:23:53.850Z,76.05
2023-02-11T09:26:22.048Z,81.65
2023-02-11T09:28:50.185Z,78.18
2023-02-11T09:31:19.479Z,76.57
2023-02-11T09:33:50.267Z,74.07
2023-02-11T09:36:18.369Z,73.72
2023-02-11T09:38:47.395Z,69.82
2023-02-11T09:41:25.067Z,78.47
2023-02-11T09:43:53.432Z,72.10
2023-02-11T09:46:22.004Z,88.57
2023-02-11T09:48:50.769Z,81.93
2023-02-11T09:51:20.583Z,91.40
2023-02-11T09:53:51.560Z,74.20
2023-02-11T09:56:18.638Z,65.80
2023-02-11T09:58:45.925Z,64.47
2023-02-11T10:01:22.059Z,62.33
2023-02-11T10:04:07.088Z,57.10
2023-02-11T10:06:44.842Z,56.53
2023-02-11T10:09:28.530Z,57.00
2023-02-11T10:11:59.486Z,66.28
2023-02-11T10:14:35.974Z,62.53
2023-02-11T10:17:09.584Z,64.85
2023-02-11T10:19:43.552Z,56.22
2023-02-11T10:22:15.001Z,56.60
2023-02-11T10:24:48.540Z,61.92
2023-02-11T10:27:17.835Z,59.92
2023-02-11T10:29:48.395Z,65.82
2023-02-11T10:32:21.954Z,58.08
2023-02-11T10:34:49.223Z,60.67
2023-02-11T10:37:16.263Z,59.33
2023-02-11T10:39:44.900Z,59.92
2023-02-11T10:42:13.186Z,57.60
2023-02-11T10:44:41.941Z,61.53
2023-02-11T10:47:11.709Z,61.75
2023-02-11T10:49:39.736Z,60.38
2023-02-11T10:52:14.363Z,63.95
2023-02-11T10:54:41.366Z,62.10
2023-02-11T10:57:18.751Z,60.08
2023-02-11T10:59:46.288Z,56.10
2023-02-11T11:02:24.936Z,55.35
2023-02-11T11:04:56.582Z,55.78
2023-02-11T11:07:25.154Z,60.13
2023-02-11T11:09:53.557Z,58.78
2023-02-11T11:12:30.369Z,58.10
2023-02-11T11:14:58.403Z,51.28
2023-02-11T11:17:29.261Z,51.22
2023-02-11T11:20:16.384Z,54.80
2023-02-11T11:22:43.896Z,51.95
2023-02-11T11:25:21.234Z,47.83
2023-02-11T11:27:50.785Z,51.63
2023-02-11T11:30:18.374Z,48.03
2023-02-11T11:32:45.497Z,49.42
2023-02-11T11:35:21.991Z,47.85
2023-02-11T11:37:54.025Z,50.27
2023-02-11T11:40:25.086Z,46.90
2023-02-11T11:43:17.040Z,50.30
2023-02-11T11:45:53.500Z,47.85
2023-02-11T11:48:22.764Z,49.10
2023-02-11T11:50:51.239Z,46.40
2023-02-11T11:53:21.083Z,41.53
2023-02-11T11:55:51.078Z,41.63
2023-02-11T11:58:20.929Z,41.13
2023-02-11T12:00:58.008Z,42.80
2023-02-11T12:03:40.946Z,39.83
2023-02-11T12:06:21.179Z,37.90
2023-02-11T12:08:55.227Z,42.35
2023-02-11T12:11:25.510Z,44.25
2023-02-11T12:14:09.441Z,40.10
2023-02-11T12:16:44.109Z,41.53
2023-02-11T12:19:26.847Z,39.42
2023-02-11T12:22:00.498Z,39.83
2023-02-11T12:24:35.179Z,44.63
2023-02-11T12:27:07.993Z,37.47
2023-02-11T12:29:40.196Z,39.93
2023-02-11T12:32:14.065Z,40.53
2023-02-11T12:34:49.852Z,40.55
2023-02-11T12:37:24.958Z,43.72
2023-02-11T12:39:56.676Z,46.03
2023-02-11T12:43:02.814Z,44.40
2023-02-11T12:45:38.840Z,49.67
2023-02-11T12:48:13.560Z,48.42
2023-02-11T12:50:46.431Z,43.70
2023-02-11T12:53:25.165Z,41.60
2023-02-11T12:55:55.438Z,43.40
2023-02-11T12:58:35.599Z,45.53
2023-02-11T13:01:09.683Z,45.60
2023-02-11T13:03:38.314Z,38.80
2023-02-11T13:06:06.850Z,39.20
2023-02-11T13:08:35.592Z,40.03
2023-02-11T13:11:04.072Z,44.55
2023-02-11T13:13:33.226Z,41.78
2023-02-11T13:16:08.215Z,38.75
2023-02-11T13:18:50.147Z,39.00
2023-02-11T13:21:26.750Z,39.33
2023-02-11T13:23:58.907Z,36.33
2023-02-11T13:26:28.287Z,40.30
2023-02-11T13:29:02.571Z,44.17
2023-02-11T13:31:30.385Z,47.20
2023-02-11T13:33:57.867Z,41.33
2023-02-11T13:36:27.187Z,43.97
2023-02-11T13:38:59.067Z,47.25
2023-02-11T13:41:28.964Z,48.95
2023-02-11T13:44:00.909Z,45.10
2023-02-11T13:46:29.605Z,48.60
2023-02-11T13:48:56.951Z,45.00
2023-02-11T13:51:36.888Z,41.50
2023-02-11T13:54:05.047Z,43.70
2023-02-11T13:56:33.410Z,50.35
2023-02-11T13:59:02.228Z,45.83
2023-02-11T14:02:18.134Z,43.35
2023-02-11T14:05:18.522Z,42.83
2023-02-11T14:08:20.125Z,42.88
2023-02-11T14:10:53.429Z,39.22
2023-02-11T14:13:24.081Z,40.63
2023-02-11T14:16:03.901Z,43.38
2023-02-11T14:18:50.028Z,45.95
2023-02-11T14:21:19.420Z,44.88
2023-02-11T14:23:47.392Z,48.97
2023-02-11T14:26:27.072Z,45.97
2023-02-11T14:28:59.714Z,45.42
2023-02-11T14:31:29.694Z,45.13
2023-02-11T14:34:07.135Z,39.25
2023-02-11T14:36:46.976Z,45.53
2023-02-11T14:39:18.510Z,43.67
2023-02-11T14:41:49.028Z,44.00
2023-02-11T14:44:18.126Z,48.10
2023-02-11T14:46:46.712Z,46.28
2023-02-11T14:49:18.850Z,43.97
2023-02-11T14:51:46.296Z,44.60
2023-02-11T14:54:17.121Z,47.88
2023-02-11T14:56:44.781Z,46.13
2023-02-11T14:59:18.468Z,45.38
2023-02-11T15:01:48.141Z,47.67
2023-02-11T15:04:25.656Z,50.10
2023-02-11T15:06:53.260Z,52.03
2023-02-11T15:09:27.986Z,48.53
2023-02-11T15:11:56.724Z,56.00
2023-02-11T15:14:26.041Z,53.97
2023-02-11T15:16:54.265Z,53.07
2023-02-11T15:19:23.286Z,53.30
2023-02-11T15:21:51.061Z,48.88
2023-02-11T15:24:23.891Z,44.58
2023-02-11T15:26:58.675Z,47.83
2023-02-11T15:29:28.210Z,45.97
2023-02-11T15:32:08.988Z,47.58
2023-02-11T15:34:36.801Z,46.85
2023-02-11T15:37:04.526Z,48.63
2023-02-11T15:39:34.320Z,47.33
2023-02-11T15:42:19.094Z,52.10
2023-02-11T15:44:52.290Z,56.08
2023-02-11T15:47:23.569Z,56.05
2023-02-11T15:49:51.314Z,58.78
2023-02-11T15:52:23.562Z,47.28
2023-02-11T15:54:51.132Z,47.67
2023-02-11T15:57:18.398Z,51.10
2023-02-11T15:59:48.663Z,56.10
2023-02-11T16:02:18.826Z,52.25
2023-02-11T16:04:53.213Z,53.20
2023-02-11T16:07:35.269Z,51.97
2023-02-11T16:10:02.425Z,52.55
2023-02-11T16:12:30.325Z,51.53
2023-02-11T16:15:00.165Z,51.88
2023-02-11T16:17:28.650Z,51.50
2023-02-11T16:19:56.123Z,50.10
2023-02-11T16:22:25.058Z,47.97
2023-02-11T16:24:53.106Z,50.20
2023-02-11T16:27:21.922Z,52.58
2023-02-11T16:29:49.832Z,52.47
2023-02-11T16:32:19.066Z,52.47
2023-02-11T16:34:46.320Z,51.78
2023-02-11T16:37:13.528Z,57.83
2023-02-11T16:39:40.619Z,56.10
2023-02-11T16:42:08.073Z,57.55
2023-02-11T16:44:36.022Z,57.07
2023-02-11T16:47:04.040Z,59.58
2023-02-11T16:49:34.446Z,60.83
2023-02-11T16:52:02.872Z,59.47
2023-02-11T16:54:30.431Z,60.97
2023-02-11T16:56:58.276Z,57.70
2023-02-11T16:59:25.714Z,58.72
2023-02-11T17:01:54.205Z,59.00
2023-02-11T17:04:23.753Z,57.85
2023-02-11T17:06:52.477Z,60.05
2023-02-11T17:09:20.784Z,59.83
2023-02-11T17:11:48.250Z,59.63
2023-02-11T17:14:15.781Z,56.42
2023-02-11T17:16:43.403Z,55.72
2023-02-11T17:19:12.355Z,87.65
2023-02-11T17:21:41.026Z,105.00
2023-02-11T17:24:09.701Z,122.55
2023-02-11T17:26:37.316Z,155.68
2023-02-11T17:29:05.527Z,205.02
2023-02-11T17:31:33.747Z,172.90
2023-02-11T17:34:01.046Z,156.48
2023-02-11T17:36:31.445Z,168.20
2023-02-11T17:38:59.210Z,152.65
2023-02-11T17:41:28.450Z,135.40
2023-02-11T17:43:57.681Z,115.13
2023-02-11T17:46:25.032Z,97.60
2023-02-11T17:48:53.379Z,119.70
2023-02-11T17:51:24.973Z,116.10
2023-02-11T17:53:53.450Z,106.93
2023-02-11T17:56:20.841Z,104.43
2023-02-11T17:58:49.584Z,98.13
2023-02-11T18:01:16.998Z,94.78
2023-02-11T18:03:44.313Z,91.57
2023-02-11T18:06:12.153Z,89.90
2023-02-11T18:08:39.387Z,85.05
2023-02-11T18:11:09.169Z,80.53
2023-02-11T18:13:36.358Z,86.18
2023-02-11T18:16:05.521Z,82.63
2023-02-11T18:18:33.022Z,88.85
2023-02-11T18:21:00.894Z,91.75
2023-02-11T18:23:28.133Z,82.10
2023-02-11T18:25:55.352Z,83.28
2023-02-11T18:28:23.025Z,89.82
2023-02-11T18:30:56.403Z,87.45
2023-02-11T18:33:25.633Z,87.13
2023-02-11T18:35:53.599Z,83.20
2023-02-11T18:38:22.383Z,78.43
2023-02-11T18:40:50.757Z,77.90
2023-02-11T18:43:18.663Z,78.35
2023-02-11T18:45:46.325Z,80.07
2023-02-11T18:48:14.303Z,74.57
2023-02-11T18:50:44.600Z,81.40
2023-02-11T18:53:12.449Z,74.65
2023-02-11T18:55:40.620Z,81.05
2023-02-11T18:58:08.035Z,84.55
2023-02-11T19:00:35.665Z,83.53
2023-02-11T19:03:03.150Z,82.38
2023-02-11T19:05:33.608Z,92.43
2023-02-11T19:08:02.534Z,104.25
2023-02-11T19:10:29.945Z,114.30
2023-02-11T19:12:59.086Z,142.90
2023-02-11T19:15:26.787Z,142.68
2023-02-11T19:17:54.697Z,213.57
2023-02-11T19:20:22.025Z,145.13
2023-02-11T19:22:49.510Z,134.82
2023-02-11T19:25:18.454Z,148.80
2023-02-11T19:27:46.019Z,134.13
2023-02-11T19:30:13.629Z,135.35
2023-02-11T19:32:41.089Z,121.95
2023-02-11T19:35:08.469Z,125.38
2023-02-11T19:37:35.903Z,132.83
2023-02-11T19:40:03.327Z,137.38
2023-02-11T19:42:31.932Z,137.45
2023-02-11T19:44:59.257Z,140.05
2023-02-11T19:47:28.043Z,140.20
2023-02-11T19:49:55.544Z,124.23
2023-02-11T19:52:22.891Z,145.75
2023-02-11T19:54:50.253Z,143.65
2023-02-11T19:57:21.202Z,166.30
2023-02-11T19:59:50.151Z,153.55
2023-02-11T20:02:19.060Z,137.43
2023-02-11T20:04:46.452Z,141.98
2023-02-11T20:07:14.415Z,143.60
2023-02-11T20:09:42.700Z,125.50
2023-02-11T20:12:10.300Z,157.15
2023-02-11T20:14:37.824Z,129.00
2023-02-11T20:17:06.519Z,113.85
2023-02-11T20:19:33.959Z,170.43
2023-02-11T20:22:01.240Z,105.63
2023-02-11T20:24:28.638Z,144.82
2023-02-11T20:26:56.308Z,71.00
2023-02-11T20:29:24.095Z,106.65
2023-02-11T20:31:51.534Z,56.67
2023-02-11T20:34:21.968Z,51.13
2023-02-11T20:36:52.253Z,46.03
2023-02-11T20:39:21.979Z,35.37
2023-02-11T20:41:49.580Z,24.85
2023-02-11T20:44:17.021Z,25.88
2023-02-11T20:46:48.024Z,26.30
2023-02-11T20:49:16.924Z,24.42
2023-02-11T20:51:45.997Z,21.57
2023-02-11T20:54:13.886Z,22.40
2023-02-11T20:56:41.147Z,30.13
2023-02-11T20:59:09.121Z,42.72
2023-02-11T21:01:40.619Z,42.65
2023-02-11T21:04:10.962Z,31.80
2023-02-11T21:06:39.452Z,34.45
2023-02-11T21:09:09.780Z,39.20
2023-02-11T21:11:37.228Z,39.17
2023-02-11T21:14:04.855Z,34.30
2023-02-11T21:16:32.623Z,28.73
2023-02-11T21:19:00.758Z,37.17
2023-02-11T21:21:28.003Z,30.20
2023-02-11T21:23:56.209Z,29.27
2023-02-11T21:26:25.188Z,31.40
2023-02-11T21:28:55.309Z,27.93
2023-02-11T21:31:25.136Z,29.35
2023-02-11T21:33:54.646Z,29.30
2023-02-11T21:36:23.205Z,33.20
2023-02-11T21:38:50.169Z,33.05
2023-02-11T21:41:17.609Z,32.93
2023-02-11T21:43:46.340Z,31.52
2023-02-11T21:46:15.646Z,27.50
2023-02-11T21:48:42.946Z,29.30
2023-02-11T21:51:13.181Z,30.00
2023-02-11T21:53:40.463Z,20.90
2023-02-11T21:56:08.829Z,26.52
2023-02-11T21:58:36.071Z,22.67
2023-02-11T22:01:11.799Z,27.70
2023-02-11T22:03:39.255Z,28.27
2023-02-11T22:06:07.106Z,26.13
2023-02-11T22:08:34.357Z,26.77
2023-02-11T22:11:02.320Z,30.38
2023-02-11T22:13:35.443Z,29.15
2023-02-11T22:16:04.144Z,32.05
2023-02-11T22:18:32.920Z,30.70
2023-02-11T22:21:01.037Z,26.75
2023-02-11T22:23:28.484Z,22.30
2023-02-11T22:25:55.906Z,22.27
2023-02-11T22:28:23.467Z,22.02
2023-02-11T22:30:53.477Z,22.10
2023-02-11T22:33:20.499Z,20.45
2023-02-11T22:35:48.881Z,22.73
2023-02-11T22:38:15.969Z,21.15
2023-02-11T22:40:43.392Z,26.38
2023-02-11T22:43:10.377Z,27.60
2023-02-11T22:45:37.370Z,23.70
2023-02-11T22:48:04.808Z,25.30
2023-02-11T22:50:31.863Z,24.40
2023-02-11T22:53:00.250Z,21.90
2023-02-11T22:55:28.241Z,21.33
2023-02-11T22:57:55.370Z,22.15
2023-02-11T23:00:24.146Z,23.05
2023-02-11T23:02:52.150Z,23.50
2023-02-11T23:05:19.126Z,21.05
2023-02-11T23:07:46.188Z,20.33
2023-02-11T23:10:14.624Z,17.70
2023-02-11T23:12:41.609Z,15.57
2023-02-11T23:15:08.671Z,24.38
2023-02-11T23:17:35.697Z,26.88
2023-02-11T23:20:03.308Z,43.80
2023-02-11T23:22:30.365Z,21.23
2023-02-11T23:24:57.357Z,18.10
2023-02-11T23:27:25.797Z,18.67
2023-02-11T23:29:55.441Z,18.08
2023-02-11T23:32:23.525Z,20.27
2023-02-11T23:34:51.179Z,17.17
2023-02-11T23:37:18.277Z,21.25
2023-02-11T23:39:45.376Z,22.23
2023-02-11T23:42:12.664Z,25.75
2023-02-11T23:44:41.168Z,23.70
2023-02-11T23:47:08.163Z,21.17
2023-02-11T23:49:35.685Z,21.95
2023-02-11T23:52:02.649Z,24.05
2023-02-11T23:54:29.730Z,21.67
2023-02-11T23:56:56.721Z,22.27
2023-02-11T23:59:23.876Z,22.90
